createdAt,value
2018-01-18T00:02:19.239Z,17.62
2018-01-18T00:05:20.163Z,17.60
2018-01-18T00:08:21.288Z,17.58
2018-01-18T00:11:22.228Z,17.58
2018-01-18T00:14:23.111Z,17.57
2018-01-18T00:17:24.052Z,17.55
2018-01-18T00:20:24.967Z,17.54
2018-01-18T00:23:25.862Z,17.54
2018-01-18T00:26:26.787Z,17.53
2018-01-18T00:29:27.721Z,17.52
2018-01-18T00:32:28.664Z,17.51
2018-01-18T00:35:29.567Z,17.49
2018-01-18T00:38:30.570Z,17.46
2018-01-18T00:41:31.519Z,17.46
2018-01-18T00:44:32.768Z,17.46
2018-01-18T00:47:33.688Z,17.44
2018-01-18T00:50:34.815Z,17.43
2018-01-18T00:53:35.722Z,17.43
2018-01-18T00:56:36.970Z,17.42
2018-01-18T00:59:37.870Z,17.41
2018-01-18T01:02:38.878Z,17.40
2018-01-18T01:05:39.826Z,17.40
2018-01-18T01:08:40.818Z,17.38
2018-01-18T01:11:41.790Z,9.87
2018-01-18T01:14:42.752Z,17.36
2018-01-18T01:17:43.746Z,17.35
2018-01-18T01:20:44.699Z,17.35
2018-01-18T01:23:45.694Z,17.35
2018-01-18T01:26:46.646Z,17.32
2018-01-18T01:29:47.638Z,17.33
2018-01-18T01:32:48.619Z,17.33
2018-01-18T01:35:49.595Z,17.30
2018-01-18T01:38:50.874Z,17.30
2018-01-18T01:41:51.852Z,17.28
2018-01-18T01:44:53.067Z,17.28
2018-01-18T01:47:54.111Z,17.28
2018-01-18T01:50:55.070Z,17.26
2018-01-18T01:53:56.322Z,17.28
2018-01-18T01:56:57.254Z,17.26
2018-01-18T01:59:58.240Z,17.26
2018-01-18T02:02:59.218Z,17.25
2018-01-18T02:06:00.215Z,17.23
2018-01-18T02:09:01.142Z,17.22
2018-01-18T02:12:02.152Z,17.22
2018-01-18T02:15:03.110Z,17.22
2018-01-18T02:18:04.108Z,17.22
2018-01-18T02:21:05.052Z,17.20
2018-01-18T02:24:06.042Z,17.20
2018-01-18T02:27:06.982Z,17.17
2018-01-18T02:30:07.982Z,17.19
2018-01-18T02:33:08.894Z,17.17
2018-01-18T02:36:09.842Z,17.17
2018-01-18T02:39:11.054Z,17.16
2018-01-18T02:42:11.975Z,17.15
2018-01-18T02:45:12.871Z,17.15
2018-01-18T02:48:13.786Z,17.08
2018-01-18T02:51:15.066Z,17.13
2018-01-18T02:54:16.089Z,17.12
2018-01-18T02:57:17.068Z,17.11
2018-01-18T03:00:18.047Z,17.12
2018-01-18T03:03:18.999Z,17.09
2018-01-18T03:06:19.999Z,17.11
2018-01-18T03:09:20.946Z,17.09
2018-01-18T03:12:21.943Z,17.08
2018-01-18T03:15:22.915Z,17.07
2018-01-18T03:18:24.032Z,17.07
2018-01-18T03:21:24.958Z,17.05
2018-01-18T03:24:26.974Z,16.68
2018-01-18T03:27:27.938Z,17.06
2018-01-18T03:30:28.923Z,17.05
2018-01-18T03:33:29.898Z,17.03
2018-01-18T03:36:30.902Z,17.04
2018-01-18T03:39:31.859Z,17.02
2018-01-18T03:42:32.802Z,17.02
2018-01-18T03:45:33.791Z,17.01
2018-01-18T03:48:34.760Z,17.00
2018-01-18T03:51:35.682Z,17.00
2018-01-18T03:54:36.600Z,17.00
2018-01-18T03:57:37.803Z,17.00
2018-01-18T04:00:38.734Z,16.99
2018-01-18T04:03:39.684Z,16.98
2018-01-18T04:06:40.636Z,16.97
2018-01-18T04:09:42.014Z,16.97
2018-01-18T04:12:42.967Z,16.97
2018-01-18T04:15:44.003Z,16.97
2018-01-18T04:18:46.007Z,16.95
2018-01-18T04:21:46.946Z,16.94
2018-01-18T04:24:47.912Z,16.93
2018-01-18T04:27:48.867Z,16.92
2018-01-18T04:30:49.847Z,16.94
2018-01-18T04:33:50.786Z,16.93
2018-01-18T04:36:51.775Z,16.92
2018-01-18T04:39:52.708Z,16.90
2018-01-18T04:42:53.648Z,16.89
2018-01-18T04:45:54.622Z,16.90
2018-01-18T04:48:55.591Z,16.88
2018-01-18T04:51:56.863Z,16.88
2018-01-18T04:54:57.811Z,16.88
2018-01-18T04:57:58.763Z,16.88
2018-01-18T05:00:59.731Z,16.88
2018-01-18T05:04:00.759Z,16.88
2018-01-18T05:07:01.687Z,16.89
2018-01-18T05:10:02.694Z,16.91
2018-01-18T05:13:03.718Z,16.95
2018-01-18T05:16:04.695Z,16.95
2018-01-18T05:19:05.727Z,16.59
2018-01-18T05:22:06.708Z,17.03
2018-01-18T05:25:07.718Z,17.07
2018-01-18T05:28:08.690Z,17.13
2018-01-18T05:31:09.777Z,17.17
2018-01-18T05:34:10.727Z,17.23
2018-01-18T05:37:11.668Z,17.31
2018-01-18T05:40:12.639Z,17.35
2018-01-18T05:43:13.586Z,17.41
2018-01-18T05:46:14.735Z,17.46
2018-01-18T05:49:15.634Z,17.51
2018-01-18T05:52:16.569Z,17.56
2018-01-18T05:55:17.502Z,17.59
2018-01-18T05:58:18.447Z,17.63
2018-01-18T06:01:19.402Z,17.66
2018-01-18T06:04:20.430Z,17.70
2018-01-18T06:07:21.343Z,17.73
2018-01-18T06:10:22.317Z,17.77
2018-01-18T06:13:23.290Z,17.79
2018-01-18T06:16:24.279Z,17.83
2018-01-18T06:19:25.230Z,17.85
2018-01-18T06:22:26.239Z,17.86
2018-01-18T06:25:27.179Z,17.88
2018-01-18T06:28:28.188Z,17.91
2018-01-18T06:31:29.103Z,17.94
2018-01-18T06:34:30.063Z,17.96
2018-01-18T06:37:31.204Z,17.99
2018-01-18T06:40:32.095Z,18.01
2018-01-18T06:43:33.030Z,18.01
2018-01-18T06:46:33.959Z,18.03
2018-01-18T06:49:34.870Z,18.05
2018-01-18T06:52:35.759Z,18.03
2018-01-18T06:55:36.682Z,18.08
2018-01-18T06:58:37.587Z,18.10
2018-01-18T07:01:38.520Z,18.12
2018-01-18T07:04:39.443Z,18.13
2018-01-18T07:07:40.375Z,18.14
2018-01-18T07:10:41.266Z,18.15
2018-01-18T07:13:42.203Z,18.16
2018-01-18T07:16:43.099Z,18.17
2018-01-18T07:19:44.025Z,18.16
2018-01-18T07:22:44.926Z,18.16
2018-01-18T07:25:45.846Z,18.16
2018-01-18T07:28:46.744Z,18.17
2018-01-18T07:31:47.695Z,18.17
2018-01-18T07:34:48.599Z,18.17
2018-01-18T07:37:49.523Z,18.17
2018-01-18T07:40:50.410Z,18.18
2018-01-18T07:43:51.351Z,18.18
2018-01-18T07:46:52.252Z,18.20
2018-01-18T07:49:53.179Z,18.20
2018-01-18T07:52:54.124Z,18.21
2018-01-18T07:55:55.045Z,18.23
2018-01-18T07:58:56.215Z,18.24
2018-01-18T08:01:57.116Z,18.24
2018-01-18T08:04:58.071Z,18.27
2018-01-18T08:07:59.122Z,18.27
2018-01-18T08:11:00.132Z,18.29
2018-01-18T08:14:01.139Z,18.31
2018-01-18T08:17:02.087Z,18.33
2018-01-18T08:20:02.992Z,18.43
2018-01-18T08:23:03.919Z,18.21
2018-01-18T08:26:04.867Z,18.20
2018-01-18T08:29:05.820Z,18.23
2018-01-18T08:32:06.762Z,18.25
2018-01-18T08:35:07.671Z,18.29
2018-01-18T08:38:08.603Z,18.31
2018-01-18T08:41:09.527Z,18.31
2018-01-18T08:44:10.423Z,18.31
2018-01-18T08:47:11.362Z,18.28
2018-01-18T08:50:13.278Z,18.27
2018-01-18T08:53:14.211Z,18.26
2018-01-18T08:56:15.131Z,18.29
2018-01-18T08:59:16.033Z,18.28
2018-01-18T09:02:16.996Z,18.30
2018-01-18T09:05:17.895Z,18.28
2018-01-18T09:08:18.839Z,18.28
2018-01-18T09:11:19.738Z,18.28
2018-01-18T09:14:20.659Z,18.28
2018-01-18T09:17:21.583Z,18.28
2018-01-18T09:20:22.543Z,18.29
2018-01-18T09:23:23.452Z,18.29
2018-01-18T09:26:24.411Z,18.29
2018-01-18T09:29:25.304Z,18.30
2018-01-18T09:32:26.403Z,18.30
2018-01-18T09:35:27.478Z,18.33
2018-01-18T09:38:28.415Z,18.33
2018-01-18T09:41:29.328Z,18.36
2018-01-18T09:44:30.295Z,18.37
2018-01-18T09:47:31.223Z,18.37
2018-01-18T09:50:32.166Z,18.40
2018-01-18T09:53:33.058Z,18.41
2018-01-18T09:56:34.035Z,18.43
2018-01-18T09:59:34.951Z,18.43
2018-01-18T10:02:35.885Z,18.45
2018-01-18T10:05:36.783Z,18.46
2018-01-18T10:08:37.831Z,18.46
2018-01-18T10:11:38.763Z,18.46
2018-01-18T10:14:39.671Z,18.08
2018-01-18T10:17:40.711Z,18.45
2018-01-18T10:20:41.611Z,18.45
2018-01-18T10:23:42.542Z,18.45
2018-01-18T10:26:43.475Z,18.44
2018-01-18T10:29:44.416Z,18.44
2018-01-18T10:32:45.324Z,18.43
2018-01-18T10:35:46.398Z,18.41
2018-01-18T10:38:47.338Z,18.42
2018-01-18T10:41:48.323Z,18.41
2018-01-18T10:44:49.223Z,18.42
2018-01-18T10:47:50.238Z,18.42
2018-01-18T10:50:51.154Z,18.42
2018-01-18T10:53:52.099Z,18.41
2018-01-18T10:56:53.063Z,18.42
2018-01-18T10:59:54.070Z,18.42
2018-01-18T11:02:54.965Z,18.42
2018-01-18T11:05:55.974Z,18.42
2018-01-18T11:08:56.890Z,18.41
2018-01-18T11:11:57.851Z,18.41
2018-01-18T11:14:58.742Z,18.41
2018-01-18T11:17:59.659Z,18.41
2018-01-18T11:21:00.592Z,18.42
2018-01-18T11:24:01.522Z,18.40
2018-01-18T11:27:02.427Z,18.40
2018-01-18T11:30:03.549Z,18.39
2018-01-18T11:33:04.459Z,18.39
2018-01-18T11:36:05.411Z,18.40
2018-01-18T11:39:06.327Z,18.39
2018-01-18T11:42:07.350Z,18.38
2018-01-18T11:45:08.303Z,18.40
2018-01-18T11:48:09.268Z,18.40
2018-01-18T11:51:10.314Z,18.41
2018-01-18T11:54:11.197Z,18.36
2018-01-18T11:57:12.126Z,18.41
2018-01-18T12:00:13.059Z,16.47
2018-01-18T12:03:13.987Z,18.42
2018-01-18T12:06:14.938Z,18.43
2018-01-18T12:09:16.198Z,18.43
2018-01-18T12:12:17.102Z,18.45
2018-01-18T12:15:18.030Z,18.44
2018-01-18T12:18:18.933Z,18.44
2018-01-18T12:21:19.855Z,18.43
2018-01-18T12:24:20.754Z,18.43
2018-01-18T12:27:21.699Z,18.44
2018-01-18T12:30:23.271Z,18.44
2018-01-18T12:33:24.173Z,18.44
2018-01-18T12:36:25.095Z,18.44
2018-01-18T12:39:26.003Z,18.44
2018-01-18T12:42:27.163Z,18.44
2018-01-18T12:45:28.062Z,18.44
2018-01-18T12:48:29.003Z,18.44
2018-01-18T12:51:29.906Z,18.44
2018-01-18T12:54:30.818Z,18.45
2018-01-18T12:57:31.787Z,18.45
2018-01-18T13:00:32.691Z,18.46
2018-01-18T13:03:33.618Z,18.45
2018-01-18T13:06:34.779Z,18.45
2018-01-18T13:09:36.698Z,18.45
2018-01-18T13:12:37.974Z,18.46
2018-01-18T13:15:38.897Z,18.46
2018-01-18T13:18:39.847Z,18.46
2018-01-18T13:21:40.755Z,18.46
2018-01-18T13:24:41.695Z,18.48
2018-01-18T13:27:42.588Z,18.49
2018-01-18T13:30:43.655Z,18.49
2018-01-18T13:33:44.547Z,18.48
2018-01-18T13:36:45.498Z,18.50
2018-01-18T13:39:46.429Z,18.51
2018-01-18T13:42:47.409Z,18.51
2018-01-18T13:45:48.282Z,18.52
2018-01-18T13:48:49.234Z,18.52
2018-01-18T13:51:50.188Z,18.54
2018-01-18T13:54:51.410Z,18.54
2018-01-18T13:57:52.344Z,18.58
2018-01-18T14:00:53.290Z,18.58
2018-01-18T14:03:54.192Z,18.56
2018-01-18T14:06:55.411Z,18.55
2018-01-18T14:09:56.315Z,18.52
2018-01-18T14:12:57.276Z,18.44
2018-01-18T14:15:58.208Z,18.40
2018-01-18T14:18:59.322Z,18.42
2018-01-18T14:22:00.244Z,18.43
2018-01-18T14:25:01.223Z,18.43
2018-01-18T14:28:02.119Z,18.48
2018-01-18T14:31:03.518Z,18.50
2018-01-18T14:34:04.468Z,18.52
2018-01-18T14:37:05.471Z,18.55
2018-01-18T14:40:06.362Z,18.56
2018-01-18T14:43:07.531Z,18.57
2018-01-18T14:46:08.435Z,18.58
2018-01-18T14:49:09.376Z,18.59
2018-01-18T14:52:10.274Z,18.59
2018-01-18T14:55:11.214Z,18.60
2018-01-18T14:58:12.103Z,18.60
2018-01-18T15:01:13.099Z,18.60
2018-01-18T15:04:14.003Z,18.59
2018-01-18T15:07:14.943Z,18.60
2018-01-18T15:10:15.845Z,18.59
2018-01-18T15:13:16.795Z,18.59
2018-01-18T15:16:17.682Z,18.57
2018-01-18T15:19:18.625Z,18.57
2018-01-18T15:22:19.530Z,18.57
2018-01-18T15:25:20.652Z,18.58
2018-01-18T15:28:21.538Z,18.58
2018-01-18T15:31:22.810Z,18.57
2018-01-18T15:34:23.706Z,18.57
2018-01-18T15:37:24.755Z,18.59
2018-01-18T15:40:25.839Z,18.59
2018-01-18T15:43:26.751Z,18.59
2018-01-18T15:46:27.726Z,18.60
2018-01-18T15:49:28.638Z,18.60
2018-01-18T15:52:29.579Z,18.60
2018-01-18T15:55:30.472Z,18.62
2018-01-18T15:58:31.403Z,18.62
2018-01-18T16:01:32.363Z,18.62
2018-01-18T16:04:33.321Z,18.64
2018-01-18T16:07:34.475Z,18.64
2018-01-18T16:10:35.416Z,18.65
2018-01-18T16:13:36.367Z,18.65
2018-01-18T16:16:37.316Z,18.65
2018-01-18T16:19:38.565Z,18.66
2018-01-18T16:22:39.457Z,18.67
2018-01-18T16:25:40.591Z,18.66
2018-01-18T16:28:41.519Z,18.66
2018-01-18T16:31:42.458Z,18.67
2018-01-18T16:34:43.355Z,18.66
2018-01-18T16:37:44.326Z,18.66
2018-01-18T16:40:45.267Z,18.66
2018-01-18T16:43:46.230Z,18.66
2018-01-18T16:46:47.130Z,18.65
2018-01-18T16:49:48.187Z,18.66
2018-01-18T16:52:49.187Z,18.65
2018-01-18T16:55:50.090Z,18.65
2018-01-18T16:58:51.056Z,18.64
2018-01-18T17:01:51.983Z,18.65
2018-01-18T17:04:53.258Z,18.66
2018-01-18T17:07:54.159Z,18.66
2018-01-18T17:10:55.106Z,18.67
2018-01-18T17:13:56.037Z,18.68
2018-01-18T17:16:57.015Z,18.67
2018-01-18T17:19:57.919Z,18.68
2018-01-18T17:22:58.846Z,18.68
2018-01-18T17:25:59.795Z,18.68
2018-01-18T17:29:00.711Z,18.71
2018-01-18T17:32:01.839Z,18.81
2018-01-18T17:35:02.752Z,18.89
2018-01-18T17:38:03.686Z,18.92
2018-01-18T17:41:04.587Z,18.95
2018-01-18T17:44:06.269Z,18.97
2018-01-18T17:47:07.194Z,18.94
2018-01-18T17:50:08.095Z,18.97
2018-01-18T17:53:09.051Z,18.99
2018-01-18T17:56:09.959Z,19.00
2018-01-18T17:59:10.910Z,19.03
2018-01-18T18:02:11.878Z,19.03
2018-01-18T18:05:12.775Z,19.04
2018-01-18T18:08:13.722Z,19.04
2018-01-18T18:11:14.683Z,19.05
2018-01-18T18:14:15.654Z,19.05
2018-01-18T18:17:16.567Z,19.07
2018-01-18T18:20:17.503Z,19.07
2018-01-18T18:23:18.431Z,19.05
2018-01-18T18:26:19.430Z,19.05
2018-01-18T18:29:20.460Z,19.01
2018-01-18T18:32:21.434Z,19.00
2018-01-18T18:35:22.727Z,18.98
2018-01-18T18:38:23.827Z,18.96
2018-01-18T18:41:24.835Z,18.95
2018-01-18T18:44:25.783Z,18.94
2018-01-18T18:48:35.474Z,18.96
2018-01-18T18:51:37.431Z,18.94
2018-01-18T18:54:39.355Z,18.90
2018-01-18T18:57:41.319Z,18.83
2018-01-18T19:00:43.246Z,18.79
2018-01-18T19:03:45.206Z,18.77
2018-01-18T19:06:47.126Z,18.76
2018-01-18T19:09:48.999Z,18.74
2018-01-18T19:12:50.908Z,18.81
2018-01-18T19:15:52.838Z,18.88
2018-01-18T19:18:54.852Z,18.89
2018-01-18T19:21:56.815Z,18.89
2018-01-18T19:24:58.755Z,19.04
2018-01-18T19:28:00.668Z,19.00
2018-01-18T19:31:02.647Z,18.99
2018-01-18T19:34:04.858Z,19.00
2018-01-18T19:37:06.840Z,19.02
2018-01-18T19:40:08.853Z,19.02
2018-01-18T19:43:10.867Z,18.99
2018-01-18T19:46:12.867Z,18.99
2018-01-18T19:49:14.886Z,19.06
2018-01-18T19:52:16.896Z,19.06
2018-01-18T19:55:18.875Z,19.06
2018-01-18T19:58:20.884Z,19.04
2018-01-18T20:01:22.856Z,19.02
2018-01-18T20:04:24.868Z,19.00
2018-01-18T20:07:26.863Z,18.95
2018-01-18T20:10:28.742Z,18.95
2018-01-18T20:13:30.663Z,18.94
2018-01-18T20:16:32.639Z,18.92
2018-01-18T20:19:34.567Z,18.90
2018-01-18T20:22:36.543Z,18.88
2018-01-18T20:25:38.499Z,18.86
2018-01-18T20:28:41.498Z,18.85
2018-01-18T20:31:43.487Z,18.85
2018-01-18T20:34:45.415Z,18.84
2018-01-18T20:37:47.310Z,18.83
2018-01-18T20:40:49.232Z,18.80
2018-01-18T20:43:51.199Z,18.78
2018-01-18T20:46:53.087Z,18.79
2018-01-18T20:49:55.003Z,18.80
2018-01-18T20:52:56.886Z,18.78
2018-01-18T20:55:58.795Z,18.78
2018-01-18T20:59:00.685Z,18.77
2018-01-18T21:02:02.596Z,18.76
2018-01-18T21:05:04.495Z,18.74
2018-01-18T21:08:06.403Z,18.72
2018-01-18T21:11:08.409Z,18.72
2018-01-18T21:14:10.308Z,18.69
2018-01-18T21:17:12.198Z,18.70
2018-01-18T21:20:14.107Z,18.69
2018-01-18T21:23:15.975Z,18.68
2018-01-18T21:26:18.210Z,18.58
2018-01-18T21:29:20.162Z,18.53
2018-01-18T21:32:22.145Z,18.48
2018-01-18T21:35:24.733Z,18.48
2018-01-18T21:38:27.171Z,18.43
2018-01-18T21:41:29.449Z,18.41
2018-01-18T21:44:31.551Z,18.38
2018-01-18T21:47:33.669Z,18.36
2018-01-18T21:50:36.588Z,18.34
2018-01-18T21:53:39.026Z,18.33
2018-01-18T21:56:41.017Z,18.30
2018-01-18T21:59:43.019Z,18.28
2018-01-18T22:02:45.507Z,18.26
2018-01-18T22:05:47.403Z,18.24
2018-01-18T22:08:49.490Z,18.22
2018-01-18T22:11:51.512Z,18.20
2018-01-18T22:14:54.316Z,18.18
2018-01-18T22:17:56.580Z,18.16
2018-01-18T22:20:58.623Z,18.14
2018-01-18T22:24:00.812Z,18.12
2018-01-18T22:27:02.823Z,18.11
2018-01-18T22:30:04.815Z,18.10
2018-01-18T22:33:06.803Z,18.06
2018-01-18T22:36:09.103Z,18.05
2018-01-18T22:39:11.147Z,18.04
2018-01-18T22:42:13.843Z,18.01
2018-01-18T22:45:15.871Z,18.02
2018-01-18T22:48:17.924Z,17.98
2018-01-18T22:51:19.894Z,17.97
2018-01-18T22:54:22.295Z,17.95
2018-01-18T22:57:24.277Z,17.94
2018-01-18T23:00:26.259Z,17.93
2018-01-18T23:03:28.538Z,17.91
2018-01-18T23:06:30.495Z,17.90
2018-01-18T23:09:32.466Z,17.88
2018-01-18T23:12:34.388Z,17.87
2018-01-18T23:15:36.396Z,17.86
2018-01-18T23:18:38.368Z,17.86
2018-01-18T23:21:40.281Z,17.83
2018-01-18T23:24:42.275Z,17.82
2018-01-18T23:27:44.240Z,17.81
2018-01-18T23:30:46.883Z,17.80
2018-01-18T23:33:48.824Z,17.80
2018-01-18T23:36:50.813Z,17.77
2018-01-18T23:39:52.738Z,17.77
2018-01-18T23:42:54.722Z,17.75
2018-01-18T23:45:56.729Z,17.73
2018-01-18T23:48:58.718Z,17.71
2018-01-18T23:52:00.726Z,17.71
2018-01-18T23:55:02.704Z,17.69
2018-01-18T23:58:04.602Z,17.70
